createdAt,value
2022-12-01T00:01:21.929Z,79.12
2022-12-01T00:03:49.589Z,78.99
2022-12-01T00:06:19.625Z,79.08
2022-12-01T00:09:07.494Z,79.11
2022-12-01T00:11:36.175Z,79.27
2022-12-01T00:14:04.439Z,79.38
2022-12-01T00:16:31.852Z,79.31
2022-12-01T00:18:59.343Z,79.43
2022-12-01T00:21:27.550Z,79.52
2022-12-01T00:23:57.519Z,79.72
2022-12-01T00:26:25.861Z,80.03
2022-12-01T00:28:56.004Z,80.12
2022-12-01T00:31:23.810Z,80.20
2022-12-01T00:33:51.579Z,80.15
2022-12-01T00:36:18.894Z,80.25
2022-12-01T00:38:46.732Z,80.21
2022-12-01T00:41:14.393Z,80.07
2022-12-01T00:43:41.868Z,80.14
2022-12-01T00:46:09.647Z,80.69
2022-12-01T00:48:37.173Z,81.08
2022-12-01T00:51:06.101Z,81.40
2022-12-01T00:53:33.477Z,81.59
2022-12-01T00:56:00.825Z,81.63
2022-12-01T00:58:28.091Z,82.03
2022-12-01T01:00:59.159Z,81.71
2022-12-01T01:03:27.706Z,82.13
2022-12-01T01:05:55.841Z,81.84
2022-12-01T01:08:23.173Z,81.80
2022-12-01T01:10:50.698Z,81.67
2022-12-01T01:13:18.081Z,82.15
2022-12-01T01:15:45.690Z,82.04
2022-12-01T01:18:13.012Z,82.17
2022-12-01T01:20:40.412Z,82.19
2022-12-01T01:23:08.531Z,81.99
2022-12-01T01:25:36.004Z,82.22
2022-12-01T01:28:03.389Z,82.30
2022-12-01T01:30:30.822Z,82.42
2022-12-01T01:32:59.090Z,82.38
2022-12-01T01:35:27.145Z,82.61
2022-12-01T01:37:54.428Z,82.70
2022-12-01T01:40:22.361Z,82.80
2022-12-01T01:42:50.476Z,82.94
2022-12-01T01:45:22.239Z,82.76
2022-12-01T01:47:52.933Z,82.75
2022-12-01T01:50:23.136Z,82.54
2022-12-01T01:53:01.266Z,82.56
2022-12-01T01:55:31.992Z,82.43
2022-12-01T01:58:00.105Z,82.60
2022-12-01T02:00:27.641Z,83.03
2022-12-01T02:03:00.306Z,83.14
2022-12-01T02:05:31.760Z,83.31
2022-12-01T02:08:00.685Z,83.23
2022-12-01T02:11:04.996Z,83.21
2022-12-01T02:13:51.446Z,83.16
2022-12-01T02:16:33.092Z,83.32
2022-12-01T02:19:34.331Z,83.03
2022-12-01T02:22:16.843Z,82.80
2022-12-01T02:24:46.892Z,82.65
2022-12-01T02:27:46.569Z,82.77
2022-12-01T02:30:39.263Z,82.73
2022-12-01T02:33:18.897Z,82.74
2022-12-01T02:36:01.064Z,82.61
2022-12-01T02:38:39.428Z,82.95
2022-12-01T02:41:25.727Z,82.72
2022-12-01T02:44:18.708Z,82.64
2022-12-01T02:46:51.072Z,82.93
2022-12-01T02:49:23.991Z,82.62
2022-12-01T02:51:52.574Z,82.88
2022-12-01T02:54:21.316Z,82.79
2022-12-01T02:56:52.748Z,82.91
2022-12-01T02:59:20.759Z,82.95
2022-12-01T03:02:24.576Z,82.84
2022-12-01T03:05:07.140Z,82.88
2022-12-01T03:07:34.472Z,82.63
2022-12-01T03:10:20.167Z,82.53
2022-12-01T03:12:55.497Z,82.53
2022-12-01T03:15:48.579Z,82.71
2022-12-01T03:18:28.031Z,82.64
2022-12-01T03:21:11.174Z,82.64
2022-12-01T03:23:50.053Z,82.67
2022-12-01T03:26:21.407Z,82.64
2022-12-01T03:28:55.835Z,83.00
2022-12-01T03:31:33.007Z,83.01
2022-12-01T03:34:18.121Z,83.35
2022-12-01T03:36:55.703Z,83.29
2022-12-01T03:39:28.288Z,83.38
2022-12-01T03:42:10.411Z,83.22
2022-12-01T03:44:44.762Z,83.26
2022-12-01T03:47:21.651Z,83.23
2022-12-01T03:49:51.823Z,82.88
2022-12-01T03:52:19.302Z,82.88
2022-12-01T03:55:02.602Z,82.73
2022-12-01T03:57:36.036Z,82.69
2022-12-01T04:00:06.841Z,82.73
2022-12-01T04:02:40.474Z,82.69
2022-12-01T04:05:11.356Z,82.64
2022-12-01T04:07:39.847Z,82.62
2022-12-01T04:10:08.136Z,82.35
2022-12-01T04:12:35.594Z,82.35
2022-12-01T04:15:10.235Z,82.37
2022-12-01T04:17:38.504Z,82.22
2022-12-01T04:20:07.632Z,82.42
2022-12-01T04:22:35.103Z,82.51
2022-12-01T04:25:03.612Z,82.47
2022-12-01T04:27:30.897Z,82.30
2022-12-01T04:29:58.429Z,82.61
2022-12-01T04:32:26.083Z,82.34
2022-12-01T04:34:53.421Z,82.14
2022-12-01T04:37:20.961Z,82.37
2022-12-01T04:39:48.530Z,82.21
2022-12-01T04:42:16.367Z,82.38
2022-12-01T04:44:43.759Z,82.75
2022-12-01T04:47:11.251Z,82.95
2022-12-01T04:49:38.635Z,82.99
2022-12-01T04:52:06.081Z,82.96
2022-12-01T04:54:33.647Z,83.28
2022-12-01T04:57:01.006Z,83.50
2022-12-01T04:59:28.366Z,83.59
2022-12-01T05:01:55.767Z,83.58
2022-12-01T05:04:23.177Z,83.86
2022-12-01T05:06:50.494Z,83.76
2022-12-01T05:09:18.078Z,83.51
2022-12-01T05:11:45.562Z,83.43
2022-12-01T05:14:13.078Z,83.03
2022-12-01T05:16:40.527Z,83.05
2022-12-01T05:19:26.287Z,83.15
2022-12-01T05:21:54.088Z,83.17
2022-12-01T05:24:21.716Z,83.53
2022-12-01T05:26:49.097Z,83.31
2022-12-01T05:29:16.513Z,83.24
2022-12-01T05:31:46.001Z,83.25
2022-12-01T05:34:13.482Z,83.04
2022-12-01T05:36:41.060Z,83.66
2022-12-01T05:39:08.331Z,83.54
2022-12-01T05:41:35.674Z,83.16
2022-12-01T05:44:03.039Z,83.56
2022-12-01T05:46:30.460Z,83.57
2022-12-01T05:48:57.732Z,83.86
2022-12-01T05:51:25.079Z,84.03
2022-12-01T05:53:52.407Z,83.95
2022-12-01T05:56:19.928Z,83.88
2022-12-01T05:58:47.464Z,83.99
2022-12-01T06:01:15.726Z,83.67
2022-12-01T06:03:43.271Z,83.77
2022-12-01T06:06:11.762Z,83.81
2022-12-01T06:08:39.136Z,83.81
2022-12-01T06:11:06.497Z,83.72
2022-12-01T06:13:33.842Z,83.52
2022-12-01T06:16:03.387Z,83.27
2022-12-01T06:18:37.067Z,83.00
2022-12-01T06:21:06.234Z,83.14
2022-12-01T06:23:34.038Z,83.30
2022-12-01T06:26:01.721Z,83.25
2022-12-01T06:28:29.085Z,83.16
2022-12-01T06:31:02.504Z,82.52
2022-12-01T06:33:31.689Z,82.20
2022-12-01T06:36:04.943Z,82.23
2022-12-01T06:38:33.974Z,81.61
2022-12-01T06:41:02.043Z,81.53
2022-12-01T06:43:29.945Z,80.41
2022-12-01T06:46:01.678Z,79.98
2022-12-01T06:48:30.918Z,79.55
2022-12-01T06:50:59.199Z,79.13
2022-12-01T06:53:29.729Z,79.55
2022-12-01T06:56:04.860Z,79.42
2022-12-01T06:58:32.874Z,79.15
2022-12-01T07:01:00.643Z,78.96
2022-12-01T07:03:28.030Z,78.87
2022-12-01T07:05:58.576Z,77.51
2022-12-01T07:08:27.519Z,71.17
2022-12-01T07:11:03.292Z,66.67
2022-12-01T07:13:33.718Z,59.56
2022-12-01T07:16:05.944Z,55.63
2022-12-01T07:18:33.986Z,54.09
2022-12-01T07:21:02.938Z,55.35
2022-12-01T07:23:30.718Z,60.70
2022-12-01T07:26:05.489Z,63.23
2022-12-01T07:28:34.039Z,68.67
2022-12-01T07:31:07.311Z,71.28
2022-12-01T07:33:36.287Z,73.69
2022-12-01T07:36:05.650Z,73.38
2022-12-01T07:38:34.490Z,72.89
2022-12-01T07:41:07.395Z,73.03
2022-12-01T07:43:35.699Z,72.81
2022-12-01T07:46:18.702Z,74.22
2022-12-01T07:48:49.507Z,72.82
2022-12-01T07:51:18.269Z,73.43
2022-12-01T07:53:46.888Z,73.40
2022-12-01T07:56:14.565Z,73.04
2022-12-01T07:58:42.416Z,71.80
2022-12-01T08:01:20.553Z,72.53
2022-12-01T08:03:54.345Z,71.24
2022-12-01T08:06:24.567Z,71.50
2022-12-01T08:08:52.445Z,70.36
2022-12-01T08:11:25.626Z,69.69
2022-12-01T08:13:53.656Z,69.83
2022-12-01T08:16:23.043Z,70.93
2022-12-01T08:18:50.878Z,71.81
2022-12-01T08:21:20.239Z,72.39
2022-12-01T08:23:48.088Z,74.25
2022-12-01T08:26:18.517Z,74.30
2022-12-01T08:28:46.741Z,74.96
2022-12-01T08:31:20.809Z,74.51
2022-12-01T08:33:50.633Z,75.14
2022-12-01T08:36:19.163Z,74.76
2022-12-01T08:38:51.041Z,73.92
2022-12-01T08:41:18.645Z,73.07
2022-12-01T08:44:01.961Z,73.24
2022-12-01T08:46:33.863Z,73.54
2022-12-01T08:49:02.179Z,73.60
2022-12-01T08:51:29.890Z,73.39
2022-12-01T08:53:58.547Z,72.47
2022-12-01T08:56:38.627Z,72.51
2022-12-01T08:59:06.362Z,72.15
2022-12-01T09:01:34.463Z,71.70
2022-12-01T09:04:06.308Z,72.40
2022-12-01T09:06:40.542Z,72.12
2022-12-01T09:09:17.342Z,72.29
2022-12-01T09:11:45.337Z,71.22
2022-12-01T09:14:14.210Z,71.01
2022-12-01T09:16:43.233Z,70.03
2022-12-01T09:19:13.171Z,68.69
2022-12-01T09:21:43.355Z,69.02
2022-12-01T09:24:12.622Z,68.54
2022-12-01T09:26:40.291Z,69.35
2022-12-01T09:29:13.715Z,68.82
2022-12-01T09:31:42.083Z,69.41
2022-12-01T09:34:13.545Z,67.66
2022-12-01T09:36:41.031Z,68.69
2022-12-01T09:39:12.070Z,69.65
2022-12-01T09:41:56.221Z,69.61
2022-12-01T09:44:32.558Z,69.70
2022-12-01T09:47:23.121Z,68.67
2022-12-01T09:50:00.161Z,68.85
2022-12-01T09:52:32.150Z,69.47
2022-12-01T09:55:00.949Z,70.05
2022-12-01T09:57:36.188Z,69.70
2022-12-01T10:00:14.516Z,69.92
2022-12-01T10:02:53.890Z,70.76
2022-12-01T10:05:24.627Z,70.60
2022-12-01T10:08:05.764Z,69.27
2022-12-01T10:10:45.901Z,70.07
2022-12-01T10:13:27.278Z,69.80
2022-12-01T10:15:54.778Z,69.66
2022-12-01T10:18:27.964Z,70.41
2022-12-01T10:21:05.452Z,70.20
2022-12-01T10:23:49.200Z,69.47
2022-12-01T10:26:31.792Z,68.20
2022-12-01T10:29:11.454Z,67.15
2022-12-01T10:31:49.940Z,67.43
2022-12-01T10:34:20.247Z,68.20
2022-12-01T10:36:47.730Z,69.19
2022-12-01T10:39:19.931Z,69.29
2022-12-01T10:41:49.076Z,68.50
2022-12-01T10:44:17.887Z,68.58
2022-12-01T10:46:53.982Z,69.16
2022-12-01T10:49:36.163Z,69.16
2022-12-01T10:52:03.799Z,69.53
2022-12-01T10:54:41.329Z,70.35
2022-12-01T10:57:17.483Z,69.52
2022-12-01T11:00:06.661Z,69.52
2022-12-01T11:02:35.870Z,70.03
2022-12-01T11:05:06.587Z,70.17
2022-12-01T11:07:41.774Z,69.74
2022-12-01T11:10:19.866Z,69.92
2022-12-01T11:13:17.313Z,69.85
2022-12-01T11:16:03.434Z,69.30
2022-12-01T11:18:35.372Z,69.37
2022-12-01T11:21:09.614Z,70.03
2022-12-01T11:23:48.730Z,70.90
2022-12-01T11:26:26.575Z,71.02
2022-12-01T11:28:58.711Z,70.85
2022-12-01T11:31:43.507Z,70.64
2022-12-01T11:34:19.669Z,70.86
2022-12-01T11:36:53.589Z,70.45
2022-12-01T11:39:41.666Z,70.06
2022-12-01T11:42:11.940Z,70.03
2022-12-01T11:44:52.403Z,69.78
2022-12-01T11:47:24.164Z,70.07
2022-12-01T11:49:58.836Z,70.60
2022-12-01T11:52:36.659Z,70.79
2022-12-01T11:55:13.680Z,71.55
2022-12-01T11:57:45.947Z,71.79
2022-12-01T12:00:14.878Z,71.06
2022-12-01T12:03:14.097Z,71.10
2022-12-01T12:05:47.535Z,70.91
2022-12-01T12:08:35.032Z,71.59
2022-12-01T12:11:28.302Z,71.08
2022-12-01T12:13:58.625Z,71.79
2022-12-01T12:16:33.685Z,71.61
2022-12-01T12:19:22.470Z,71.38
2022-12-01T12:22:14.679Z,71.45
2022-12-01T12:25:07.380Z,71.70
2022-12-01T12:28:06.246Z,71.30
2022-12-01T12:30:44.257Z,70.63
2022-12-01T12:33:47.400Z,70.28
2022-12-01T12:36:33.705Z,70.42
2022-12-01T12:39:28.778Z,70.55
2022-12-01T12:41:57.663Z,69.65
2022-12-01T12:44:46.980Z,69.57
2022-12-01T12:47:28.237Z,70.09
2022-12-01T12:50:41.803Z,71.26
2022-12-01T12:53:21.284Z,70.55
2022-12-01T12:55:52.430Z,71.18
2022-12-01T12:58:34.221Z,71.15
2022-12-01T13:01:21.715Z,70.61
2022-12-01T13:04:10.764Z,70.17
2022-12-01T13:06:47.364Z,70.03
2022-12-01T13:09:23.443Z,70.12
2022-12-01T13:12:34.394Z,70.33
2022-12-01T13:15:16.408Z,71.10
2022-12-01T13:17:49.622Z,70.85
2022-12-01T13:20:20.647Z,71.79
2022-12-01T13:22:48.909Z,71.75
2022-12-01T13:25:38.412Z,72.06
2022-12-01T13:28:15.232Z,72.40
2022-12-01T13:30:59.945Z,72.55
2022-12-01T13:33:27.931Z,72.63
2022-12-01T13:36:29.843Z,72.65
2022-12-01T13:38:56.633Z,73.96
2022-12-01T13:41:29.835Z,73.52
2022-12-01T13:44:04.767Z,73.23
2022-12-01T13:46:51.049Z,73.37
2022-12-01T13:49:38.013Z,73.08
2022-12-01T13:52:25.854Z,73.10
2022-12-01T13:55:10.116Z,73.26
2022-12-01T13:57:44.565Z,73.72
2022-12-01T14:00:26.309Z,74.07
2022-12-01T14:03:15.312Z,75.22
2022-12-01T14:05:45.923Z,75.99
2022-12-01T14:08:23.483Z,76.94
2022-12-01T14:11:02.086Z,78.18
2022-12-01T14:13:32.491Z,77.86
2022-12-01T14:16:02.568Z,77.97
2022-12-01T14:18:35.189Z,77.94
2022-12-01T14:21:06.365Z,79.44
2022-12-01T14:23:36.237Z,79.86
2022-12-01T14:26:12.774Z,79.70
2022-12-01T14:28:56.013Z,79.39
2022-12-01T14:31:24.878Z,79.90
2022-12-01T14:33:59.070Z,80.33
2022-12-01T14:36:44.241Z,80.43
2022-12-01T14:39:22.024Z,80.95
2022-12-01T14:41:57.434Z,81.07
2022-12-01T14:44:33.607Z,81.06
2022-12-01T14:47:23.535Z,81.96
2022-12-01T14:49:59.527Z,82.52
2022-12-01T14:52:37.518Z,82.44
2022-12-01T14:55:19.465Z,82.35
2022-12-01T14:57:51.063Z,82.96
2022-12-01T15:00:24.591Z,82.75
2022-12-01T15:03:00.736Z,83.32
2022-12-01T15:05:32.670Z,83.29
2022-12-01T15:11:25.880Z,83.85
2022-12-01T15:13:55.352Z,84.03
2022-12-01T15:16:29.105Z,83.80
2022-12-01T15:18:56.731Z,83.45
2022-12-01T15:21:31.323Z,83.67
2022-12-01T15:24:04.941Z,83.64
2022-12-01T15:26:45.262Z,84.14
2022-12-01T15:29:15.767Z,83.78
2022-12-01T15:32:22.713Z,83.82
2022-12-01T15:34:54.887Z,83.96
2022-12-01T15:37:24.849Z,84.39
2022-12-01T15:40:00.839Z,84.65
2022-12-01T15:42:39.720Z,84.44
2022-12-01T15:45:22.652Z,84.97
2022-12-01T15:47:52.304Z,84.80
2022-12-01T15:50:25.873Z,84.96
2022-12-01T15:52:53.201Z,84.81
2022-12-01T15:55:32.754Z,85.32
2022-12-01T15:58:01.428Z,85.26
2022-12-01T16:00:28.897Z,85.77
2022-12-01T16:02:59.521Z,85.60
2022-12-01T16:05:30.394Z,85.74
2022-12-01T16:08:14.079Z,85.76
2022-12-01T16:10:41.593Z,85.80
2022-12-01T16:13:50.873Z,85.68
2022-12-01T16:16:27.099Z,85.38
2022-12-01T16:18:58.603Z,85.62
2022-12-01T16:21:27.089Z,85.65
2022-12-01T16:24:05.680Z,86.29
2022-12-01T16:26:33.891Z,86.26
2022-12-01T16:29:01.296Z,86.32
2022-12-01T16:31:28.811Z,86.20
2022-12-01T16:34:18.453Z,86.26
2022-12-01T16:36:51.288Z,86.35
2022-12-01T16:39:18.593Z,86.50
2022-12-01T16:41:46.905Z,86.66
2022-12-01T16:44:30.611Z,86.63
2022-12-01T16:46:57.943Z,86.91
2022-12-01T16:49:26.322Z,87.12
2022-12-01T16:51:56.861Z,87.12
2022-12-01T16:54:25.390Z,87.12
2022-12-01T16:56:52.792Z,87.26
2022-12-01T16:59:20.621Z,87.14
2022-12-01T17:01:48.055Z,87.55
2022-12-01T17:04:15.565Z,88.03
2022-12-01T17:06:43.226Z,87.76
2022-12-01T17:09:10.523Z,87.65
2022-12-01T17:11:37.794Z,88.22
2022-12-01T17:14:05.417Z,87.93
2022-12-01T17:16:32.857Z,87.91
2022-12-01T17:19:01.453Z,87.96
2022-12-01T17:21:29.212Z,88.14
2022-12-01T17:23:56.854Z,88.00
2022-12-01T17:26:24.166Z,88.15
2022-12-01T17:28:55.123Z,88.38
2022-12-01T17:31:22.677Z,88.56
2022-12-01T17:33:51.056Z,88.80
2022-12-01T17:36:19.203Z,88.63
2022-12-01T17:38:47.766Z,88.82
2022-12-01T17:41:18.162Z,89.14
2022-12-01T17:43:45.685Z,89.14
2022-12-01T17:46:13.208Z,89.23
2022-12-01T17:48:43.136Z,89.12
2022-12-01T17:51:12.562Z,89.29
2022-12-01T17:53:40.350Z,89.46
2022-12-01T17:56:13.702Z,89.46
2022-12-01T17:58:41.292Z,89.28
2022-12-01T18:01:19.043Z,89.41
2022-12-01T18:03:47.588Z,89.41
2022-12-01T18:06:16.405Z,89.17
2022-12-01T18:08:43.773Z,89.58
2022-12-01T18:11:16.363Z,89.48
2022-12-01T18:13:46.502Z,89.47
2022-12-01T18:16:15.441Z,89.44
2022-12-01T18:18:42.976Z,89.40
2022-12-01T18:21:12.990Z,89.24
2022-12-01T18:23:40.567Z,89.34
2022-12-01T18:26:15.828Z,89.39
2022-12-01T18:28:44.073Z,89.26
2022-12-01T18:31:22.074Z,89.43
2022-12-01T18:33:49.868Z,89.54
2022-12-01T18:36:23.037Z,89.47
2022-12-01T18:38:51.787Z,89.62
2022-12-01T18:41:21.229Z,89.67
2022-12-01T18:43:50.755Z,89.68
2022-12-01T18:46:19.833Z,89.71
2022-12-01T18:48:50.382Z,89.73
2022-12-01T18:51:21.719Z,89.68
2022-12-01T18:53:55.173Z,89.68
2022-12-01T18:56:24.586Z,89.92
2022-12-01T18:59:03.425Z,89.72
2022-12-01T19:01:34.047Z,89.68
2022-12-01T19:04:04.157Z,89.83
2022-12-01T19:06:33.284Z,89.65
2022-12-01T19:09:04.906Z,89.57
2022-12-01T19:11:33.266Z,89.63
2022-12-01T19:14:01.305Z,89.94
2022-12-01T19:16:34.070Z,89.87
2022-12-01T19:19:03.210Z,89.76
2022-12-01T19:21:37.015Z,89.87
2022-12-01T19:24:11.163Z,89.78
2022-12-01T19:26:39.217Z,89.64
2022-12-01T19:29:06.693Z,89.66
2022-12-01T19:31:34.864Z,89.76
2022-12-01T19:34:04.433Z,89.90
2022-12-01T19:36:32.244Z,89.90
2022-12-01T19:39:00.657Z,89.72
2022-12-01T19:41:30.158Z,89.84
2022-12-01T19:43:58.145Z,89.81
2022-12-01T19:46:28.673Z,89.71
2022-12-01T19:49:00.164Z,89.71
2022-12-01T19:51:35.224Z,89.45
2022-12-01T19:54:07.926Z,89.44
2022-12-01T19:56:36.132Z,89.61
2022-12-01T19:59:04.898Z,89.35
2022-12-01T20:01:32.544Z,89.50
2022-12-01T20:04:01.931Z,89.27
2022-12-01T20:06:31.465Z,89.46
2022-12-01T20:09:01.508Z,89.54
2022-12-01T20:11:35.507Z,89.44
2022-12-01T20:14:07.446Z,89.44
2022-12-01T20:16:37.983Z,89.46
2022-12-01T20:19:06.000Z,89.46
2022-12-01T20:21:36.168Z,89.27
2022-12-01T20:24:06.807Z,89.38
2022-12-01T20:26:43.750Z,89.31
2022-12-01T20:29:15.113Z,89.38
2022-12-01T20:31:43.334Z,89.70
2022-12-01T20:34:18.159Z,89.55
2022-12-01T20:36:45.953Z,89.39
2022-12-01T20:39:15.018Z,89.42
2022-12-01T20:41:44.994Z,89.41
2022-12-01T20:44:14.984Z,89.46
2022-12-01T20:46:47.409Z,89.48
2022-12-01T20:49:17.336Z,89.52
2022-12-01T20:51:45.377Z,89.64
2022-12-01T20:54:30.554Z,89.55
2022-12-01T20:56:58.936Z,89.73
2022-12-01T20:59:27.181Z,89.63
2022-12-01T21:01:54.545Z,89.55
2022-12-01T21:04:22.006Z,89.58
2022-12-01T21:06:50.480Z,89.82
2022-12-01T21:09:21.077Z,90.04
2022-12-01T21:12:09.563Z,90.13
2022-12-01T21:14:42.901Z,90.17
2022-12-01T21:17:35.421Z,90.21
2022-12-01T21:20:21.738Z,90.21
2022-12-01T21:22:50.373Z,90.42
2022-12-01T21:25:26.439Z,90.33
2022-12-01T21:27:58.233Z,90.17
2022-12-01T21:30:29.973Z,90.08
2022-12-01T21:33:32.134Z,90.04
2022-12-01T21:36:03.093Z,90.11
2022-12-01T21:38:32.021Z,90.08
2022-12-01T21:40:59.422Z,90.04
2022-12-01T21:43:38.505Z,90.03
2022-12-01T21:46:14.044Z,89.94
2022-12-01T21:48:42.371Z,89.81
2022-12-01T21:51:27.764Z,89.54
2022-12-01T21:53:56.545Z,89.55
2022-12-01T21:56:28.858Z,89.60
2022-12-01T21:58:59.348Z,89.50
2022-12-01T22:01:28.218Z,89.49
2022-12-01T22:04:01.813Z,89.51
2022-12-01T22:06:37.682Z,89.45
2022-12-01T22:09:31.958Z,89.51
2022-12-01T22:12:22.384Z,89.52
2022-12-01T22:14:50.513Z,89.46
2022-12-01T22:17:21.760Z,89.66
2022-12-01T22:20:01.924Z,89.62
2022-12-01T22:22:32.483Z,89.54
2022-12-01T22:25:15.486Z,89.60
2022-12-01T22:27:43.942Z,89.61
2022-12-01T22:30:20.118Z,89.77
2022-12-01T22:32:59.255Z,90.09
2022-12-01T22:35:31.665Z,90.15
2022-12-01T22:38:09.393Z,90.09
2022-12-01T22:40:43.885Z,89.94
2022-12-01T22:43:17.743Z,89.99
2022-12-01T22:46:00.129Z,90.00
2022-12-01T22:48:27.444Z,90.01
2022-12-01T22:50:56.066Z,89.89
2022-12-01T22:53:29.485Z,89.76
2022-12-01T22:56:00.152Z,89.60
2022-12-01T22:58:32.523Z,89.83
2022-12-01T23:01:11.393Z,89.90
2022-12-01T23:03:39.369Z,90.08
2022-12-01T23:06:42.714Z,90.00
2022-12-01T23:09:13.731Z,90.04
2022-12-01T23:11:51.067Z,90.22
2022-12-01T23:14:22.568Z,90.18
2022-12-01T23:17:04.372Z,90.20
2022-12-01T23:19:33.859Z,90.15
2022-12-01T23:22:01.780Z,89.94
2022-12-01T23:24:33.693Z,90.23
2022-12-01T23:27:02.108Z,90.12
2022-12-01T23:29:30.883Z,90.14
2022-12-01T23:31:58.344Z,90.02
2022-12-01T23:34:25.779Z,89.95
2022-12-01T23:36:53.338Z,89.80
2022-12-01T23:39:28.277Z,89.86
2022-12-01T23:41:56.029Z,89.80
2022-12-01T23:44:40.923Z,89.88
2022-12-01T23:47:22.189Z,89.92
2022-12-01T23:49:55.649Z,89.86
2022-12-01T23:52:24.359Z,89.96
2022-12-01T23:54:51.859Z,90.18
2022-12-01T23:57:23.344Z,90.23
2022-12-01T23:59:54.711Z,90.30
